Thalassa — FNFP — position and weather

sailwx.info

Track history (hours):
 
Tides and Currents Weather Stations Pressure Air Temp Water Temp Dewpoint Dewpoint Depression Visibility Wind Speed Wind Dir Waves Ship Positions

Oceanographic research ship Thalassa (France & Spain)

Detailed information on ship capabilities available from University of Delaware's Ocean Information Center.

Last reported at 2016-May-24 11:32 UTC. Time now 2016-May-25 03:25 UTC.
Position N 46°45' W 003°14'.

Length 74 m; beam 15 m.

Type: Ship. MMSI: 227297000.

Date/timePositionNaut miles runAvg speedWind from/ knotsBaromVisibWave heightAir tempDewpointWater temp
2016-May-24 11:32N 46°45' W 003°14'1110.8
2016-May-24 10:33N 46°56' W 003°15'1211.7
2016-May-24 09:33N 47°07' W 003°16'1212.1
2016-May-24 08:33N 47°19' W 003°18'1212.2
2016-May-24 07:33N 47°31' W 003°20'1110.7
2016-May-24 06:34N 47°42' W 003°22'3 2.6
2016-May-24 05:34N 47°44' W 003°21'0 0.0
2016-May-24 04:31N 47°44' W 003°21'0 0.0
2016-May-24 03:31N 47°44' W 003°21'0 0.0
2016-May-24 02:31N 47°44' W 003°21'0 0.0
2016-May-24 01:31N 47°44' W 003°21'0 0.0
2016-May-24 00:31N 47°44' W 003°21'0 0.0
2016-May-23 23:31N 47°44' W 003°21'0 0.0
2016-May-23 22:31N 47°44' W 003°21'0 0.0
2016-May-23 21:31N 47°44' W 003°21'0 0.0
2016-May-23 20:34N 47°44' W 003°21'0 0.0
2016-May-23 19:34N 47°44' W 003°21'0 0.0
2016-May-23 18:34N 47°44' W 003°21'0 0.0
2016-May-23 17:33N 47°44' W 003°21'0 0.0
2016-May-23 16:33N 47°44' W 003°21'0 0.0
2016-May-23 15:33N 47°44' W 003°21'0 0.0
2016-May-23 14:33N 47°44' W 003°21'0 0.0
2016-May-23 13:33N 47°44' W 003°21'0 0.0
2016-May-23 12:33N 47°44' W 003°21'0 0.0
2016-May-23 11:33N 47°44' W 003°21'0 0.0
2016-May-23 10:33N 47°44' W 003°21'0 0.0
2016-May-23 09:33N 47°44' W 003°21'0 0.0
2016-May-23 08:33N 47°44' W 003°21'0 0.0
2016-May-23 07:33N 47°44' W 003°21'0 0.0
2016-May-23 06:33N 47°44' W 003°21'0 0.4
2016-May-23 05:33N 47°44' W 003°21'6 5.5
2016-May-23 04:33N 47°40' W 003°27'5 5.1
2016-May-23 03:33N 47°39' W 003°35'6 6.3
2016-May-23 02:33N 47°36' W 003°43'6 5.9
2016-May-23 01:33N 47°33' W 003°51'6 5.5
2016-May-23 00:33N 47°31' W 003°58'47 2.1
2016-May-22 02:09N 47°30' W 005°08'3 4.5
2016-May-22 01:33N 47°32' W 005°10'7 3.4
2016-May-21 23:32N 47°29' W 005°19'15 1.0
2016-May-21 09:06N 47°40' W 005°05'3 5.3
2016-May-21 08:33N 47°42' W 005°02'4 4.1
2016-May-21 07:33N 47°39' W 005°06'6 5.6
2016-May-21 06:32N 47°43' W 005°01'1010.0
2016-May-21 05:33N 47°50' W 004°51'10 9.7
2016-May-21 04:33N 47°58' W 004°41'6 5.5
2016-May-21 03:33N 47°52' W 004°43'6 6.0
2016-May-21 02:31N 47°46' W 004°45'13 6.3
2016-May-21 00:27N 47°33' W 004°49'2 1.9
2016-May-20 23:33N 47°35' W 004°47'7 6.4
2016-May-20 22:28N 47°40' W 004°40'7 6.2
2016-May-20 21:23N 47°45' W 004°34'910.6
2016-May-20 20:33N 47°51' W 004°25'5 4.5
2016-May-20 19:33N 47°55' W 004°30'4 4.0
2016-May-20 18:33N 47°58' W 004°34'7 7.4
2016-May-20 17:33N 47°54' W 004°25'1 1.1
2016-May-20 16:33N 47°55' W 004°26'8 8.0
2016-May-20 15:31N 47°47' W 004°31'3310.0
2016-May-20 12:15N 47°23' W 005°04'4 6.0
2016-May-20 11:30N 47°19' W 005°01'8 8.9
2016-May-20 10:33N 47°12' W 004°54'10 9.6
2016-May-20 09:33N 47°19' W 004°45'10 9.9
2016-May-20 08:31N 47°27' W 004°35'6 6.6
2016-May-20 07:33N 47°32' W 004°29'3 2.5
2016-May-20 06:33N 47°30' W 004°31'1210.2
2016-May-20 05:25N 47°39' W 004°20'8 9.8
2016-May-20 04:33N 47°45' W 004°12'14 4.1
2016-May-20 01:06N 47°38' W 003°53'1 1.4
2016-May-20 00:33N 47°38' W 003°54'1211.3
2016-May-19 23:28N 47°29' W 004°07'13 6.9
2016-May-19 21:33N 47°19' W 004°20'9 8.4
2016-May-19 20:32N 47°13' W 004°28'1110.9
2016-May-19 19:33N 47°05' W 004°39'1 0.6
2016-May-19 18:24N 47°05' W 004°38'3 3.1
2016-May-19 17:33N 47°07' W 004°36'31 7.7
2016-May-19 13:33N 47°30' W 004°05'1010.1
2016-May-19 12:33N 47°37' W 003°55'7 7.0
2016-May-19 11:34N 47°41' W 003°46'4 3.5
2016-May-19 10:33N 47°43' W 003°50'1110.7
2016-May-19 09:33N 47°38' W 003°36'6 5.9
2016-May-19 08:34N 47°32' W 003°36'1010.2
2016-May-19 07:33N 47°26' W 003°47'15 2.5
2016-May-19 01:33N 47°11' W 003°50'0 0.2
2016-May-19 00:33N 47°11' W 003°50'10 9.7
2016-May-18 23:33N 47°17' W 003°39'5 5.3
2016-May-18 22:34N 47°20' W 003°33'10 9.9
2016-May-18 21:33N 47°26' W 003°21'5 4.7
2016-May-18 20:34N 47°30' W 003°18'5 4.8
2016-May-18 19:33N 47°34' W 003°15'2 2.4
2016-May-18 18:33N 47°32' W 003°14'9 9.3
2016-May-18 17:34N 47°26' W 003°23'1010.0
2016-May-18 16:33N 47°19' W 003°35'1310.1
2016-May-18 15:18N 47°11' W 003°49'12 6.8
2016-May-18 13:33N 47°01' W 003°41'5 5.1
2016-May-18 12:31N 47°01' W 003°48'2010.0
2016-May-18 10:33N 47°19' W 003°36'8 2.7
2016-May-18 07:29N 47°13' W 003°45'9 9.1
2016-May-18 06:33N 47°19' W 003°36'9 9.1
2016-May-18 05:33N 47°25' W 003°25'9 9.4
2016-May-18 04:33N 47°31' W 003°15'9 9.2
2016-May-18 03:33N 47°22' W 003°19'1010.3
2016-May-18 02:34N 47°12' W 003°16'4 3.9
2016-May-18 01:33N 47°08' W 003°17'1312.8
2016-May-18 00:33N 46°56' W 003°23'2 1.6
2016-May-17 23:33N 46°56' W 003°21'1211.7
2016-May-17 22:34N 47°03' W 003°07'7 6.7
2016-May-17 21:34N 47°06' W 002°58'1110.7
2016-May-17 20:33N 47°11' W 002°44'5 4.8
2016-May-17 19:33N 47°13' W 002°51'3 3.4
2016-May-17 18:33N 47°14' W 002°56'6 5.7
2016-May-17 17:33N 47°17' W 003°03'1010.0
2016-May-17 16:34N 47°11' W 003°15'6 5.6
2016-May-17 15:33N 47°08' W 003°22'1010.1
2016-May-17 14:32N 47°03' W 003°35'1212.3
2016-May-17 13:31N 46°58' W 003°18'6 6.5
2016-May-17 12:33N 46°54' W 003°26'1010.3
2016-May-17 11:33N 46°60' W 003°13'1 1.1
2016-May-17 10:32N 46°59' W 003°15'3 3.1
2016-May-17 09:34N 47°01' W 003°11'9 9.3
2016-May-17 08:34N 47°05' W 002°59'5 4.9
2016-May-17 07:33N 47°03' W 003°05'10 9.6
2016-May-17 06:34N 47°08' W 002°53'1010.0
2016-May-17 05:34N 47°13' W 002°40'4 3.8
2016-May-17 04:33N 47°15' W 002°36'2 2.2
2016-May-17 03:34N 47°13' W 002°37'4 4.2
2016-May-17 02:33N 47°10' W 002°33'4 3.9
2016-May-17 01:30N 47°08' W 002°28'5 5.1
2016-May-17 00:33N 47°04' W 002°32'5 5.3
2016-May-16 23:33N 46°60' W 002°37'1211.8
2016-May-16 22:30N 46°54' W 002°53'15 6.4
2016-May-16 20:10N 46°46' W 003°12'1 1.8
2016-May-16 19:33N 46°47' W 003°10'10 9.9
2016-May-16 18:33N 46°52' W 002°58'9 8.5
2016-May-16 17:33N 46°56' W 002°47'4 4.1
2016-May-16 16:33N 46°54' W 002°52'7 6.9
2016-May-16 15:33N 46°57' W 002°43'10 9.6
2016-May-16 14:33N 47°02' W 002°31'3 3.1
2016-May-16 13:33N 47°01' W 002°27'9 9.3
2016-May-16 12:34N 46°53' W 002°23'3718.0
2016-May-16 10:29N 46°26' W 003°02'3027.0
2016-May-16 09:24N 46°39' W 002°23'26 3.0
2016-May-16 00:33N 46°26' W 002°56'0 0.4
2016-May-15 23:30N 46°26' W 002°56'8 8.8
2016-May-15 22:33N 46°29' W 002°45'8 7.6
2016-May-15 21:33N 46°33' W 002°36'1010.4
2016-May-15 20:33N 46°39' W 002°23'0 0.3
2016-May-15 19:30N 46°39' W 002°23'3 3.6
2016-May-15 18:34N 46°40' W 002°18'15 7.2
2016-May-15 16:30N 46°33' W 002°37'11 3.4
2016-May-15 13:27N 46°28' W 002°50'20 6.5
2016-May-15 10:20N 46°17' W 003°15'910.9
2016-May-15 09:31N 46°26' W 003°19'6 6.7
2016-May-15 08:33N 46°26' W 003°28'1010.0
2016-May-15 07:33N 46°21' W 003°41'  
Track history (hours):
 
Tides and Currents Weather Stations Pressure Air Temp Water Temp Dewpoint Dewpoint Depression Visibility Wind Speed Wind Dir Waves Ship Positions

Oceanographic research ship Thalassa (France & Spain)

Detailed information on ship capabilities available from University of Delaware's Ocean Information Center.

Last reported at 2016-May-24 11:32 UTC. Time now 2016-May-25 03:25 UTC.
Position N 46°45' W 003°14'.

Length 74 m; beam 15 m.

Type: Ship. MMSI: 227297000.

Date/timePositionNaut miles runAvg speedWind from/ knotsBaromVisibWave heightAir tempDewpointWater temp
2016-May-24 11:32N 46°45' W 003°14'1110.8
2016-May-24 10:33N 46°56' W 003°15'1211.7
2016-May-24 09:33N 47°07' W 003°16'1212.1
2016-May-24 08:33N 47°19' W 003°18'1212.2
2016-May-24 07:33N 47°31' W 003°20'1110.7
2016-May-24 06:34N 47°42' W 003°22'3 2.6
2016-May-24 05:34N 47°44' W 003°21'0 0.0
2016-May-24 04:31N 47°44' W 003°21'0 0.0
2016-May-24 03:31N 47°44' W 003°21'0 0.0
2016-May-24 02:31N 47°44' W 003°21'0 0.0
2016-May-24 01:31N 47°44' W 003°21'0 0.0
2016-May-24 00:31N 47°44' W 003°21'0 0.0
2016-May-23 23:31N 47°44' W 003°21'0 0.0
2016-May-23 22:31N 47°44' W 003°21'0 0.0
2016-May-23 21:31N 47°44' W 003°21'0 0.0
2016-May-23 20:34N 47°44' W 003°21'0 0.0
2016-May-23 19:34N 47°44' W 003°21'0 0.0
2016-May-23 18:34N 47°44' W 003°21'0 0.0
2016-May-23 17:33N 47°44' W 003°21'0 0.0
2016-May-23 16:33N 47°44' W 003°21'0 0.0
2016-May-23 15:33N 47°44' W 003°21'0 0.0
2016-May-23 14:33N 47°44' W 003°21'0 0.0
2016-May-23 13:33N 47°44' W 003°21'0 0.0
2016-May-23 12:33N 47°44' W 003°21'0 0.0
2016-May-23 11:33N 47°44' W 003°21'0 0.0
2016-May-23 10:33N 47°44' W 003°21'0 0.0
2016-May-23 09:33N 47°44' W 003°21'0 0.0
2016-May-23 08:33N 47°44' W 003°21'0 0.0
2016-May-23 07:33N 47°44' W 003°21'0 0.0
2016-May-23 06:33N 47°44' W 003°21'0 0.4
2016-May-23 05:33N 47°44' W 003°21'6 5.5
2016-May-23 04:33N 47°40' W 003°27'5 5.1
2016-May-23 03:33N 47°39' W 003°35'6 6.3
2016-May-23 02:33N 47°36' W 003°43'6 5.9
2016-May-23 01:33N 47°33' W 003°51'6 5.5
2016-May-23 00:33N 47°31' W 003°58'47 2.1
2016-May-22 02:09N 47°30' W 005°08'3 4.5
2016-May-22 01:33N 47°32' W 005°10'7 3.4
2016-May-21 23:32N 47°29' W 005°19'15 1.0
2016-May-21 09:06N 47°40' W 005°05'3 5.3
2016-May-21 08:33N 47°42' W 005°02'4 4.1
2016-May-21 07:33N 47°39' W 005°06'6 5.6
2016-May-21 06:32N 47°43' W 005°01'1010.0
2016-May-21 05:33N 47°50' W 004°51'10 9.7
2016-May-21 04:33N 47°58' W 004°41'6 5.5
2016-May-21 03:33N 47°52' W 004°43'6 6.0
2016-May-21 02:31N 47°46' W 004°45'13 6.3
2016-May-21 00:27N 47°33' W 004°49'2 1.9
2016-May-20 23:33N 47°35' W 004°47'7 6.4
2016-May-20 22:28N 47°40' W 004°40'7 6.2
2016-May-20 21:23N 47°45' W 004°34'910.6
2016-May-20 20:33N 47°51' W 004°25'5 4.5
2016-May-20 19:33N 47°55' W 004°30'4 4.0
2016-May-20 18:33N 47°58' W 004°34'7 7.4
2016-May-20 17:33N 47°54' W 004°25'1 1.1
2016-May-20 16:33N 47°55' W 004°26'8 8.0
2016-May-20 15:31N 47°47' W 004°31'3310.0
2016-May-20 12:15N 47°23' W 005°04'4 6.0
2016-May-20 11:30N 47°19' W 005°01'8 8.9
2016-May-20 10:33N 47°12' W 004°54'10 9.6
2016-May-20 09:33N 47°19' W 004°45'10 9.9
2016-May-20 08:31N 47°27' W 004°35'6 6.6
2016-May-20 07:33N 47°32' W 004°29'3 2.5
2016-May-20 06:33N 47°30' W 004°31'1210.2
2016-May-20 05:25N 47°39' W 004°20'8 9.8
2016-May-20 04:33N 47°45' W 004°12'14 4.1
2016-May-20 01:06N 47°38' W 003°53'1 1.4
2016-May-20 00:33N 47°38' W 003°54'1211.3
2016-May-19 23:28N 47°29' W 004°07'13 6.9
2016-May-19 21:33N 47°19' W 004°20'9 8.4
2016-May-19 20:32N 47°13' W 004°28'1110.9
2016-May-19 19:33N 47°05' W 004°39'1 0.6
2016-May-19 18:24N 47°05' W 004°38'3 3.1
2016-May-19 17:33N 47°07' W 004°36'31 7.7
2016-May-19 13:33N 47°30' W 004°05'1010.1
2016-May-19 12:33N 47°37' W 003°55'7 7.0
2016-May-19 11:34N 47°41' W 003°46'4 3.5
2016-May-19 10:33N 47°43' W 003°50'1110.7
2016-May-19 09:33N 47°38' W 003°36'6 5.9
2016-May-19 08:34N 47°32' W 003°36'1010.2
2016-May-19 07:33N 47°26' W 003°47'15 2.5
2016-May-19 01:33N 47°11' W 003°50'0 0.2
2016-May-19 00:33N 47°11' W 003°50'10 9.7
2016-May-18 23:33N 47°17' W 003°39'5 5.3
2016-May-18 22:34N 47°20' W 003°33'10 9.9
2016-May-18 21:33N 47°26' W 003°21'5 4.7
2016-May-18 20:34N 47°30' W 003°18'5 4.8
2016-May-18 19:33N 47°34' W 003°15'2 2.4
2016-May-18 18:33N 47°32' W 003°14'9 9.3
2016-May-18 17:34N 47°26' W 003°23'1010.0
2016-May-18 16:33N 47°19' W 003°35'1310.1
2016-May-18 15:18N 47°11' W 003°49'12 6.8
2016-May-18 13:33N 47°01' W 003°41'5 5.1
2016-May-18 12:31N 47°01' W 003°48'2010.0
2016-May-18 10:33N 47°19' W 003°36'8 2.7
2016-May-18 07:29N 47°13' W 003°45'9 9.1
2016-May-18 06:33N 47°19' W 003°36'9 9.1
2016-May-18 05:33N 47°25' W 003°25'9 9.4
2016-May-18 04:33N 47°31' W 003°15'9 9.2
2016-May-18 03:33N 47°22' W 003°19'1010.3
2016-May-18 02:34N 47°12' W 003°16'4 3.9
2016-May-18 01:33N 47°08' W 003°17'1312.8
2016-May-18 00:33N 46°56' W 003°23'2 1.6
2016-May-17 23:33N 46°56' W 003°21'1211.7
2016-May-17 22:34N 47°03' W 003°07'7 6.7
2016-May-17 21:34N 47°06' W 002°58'1110.7
2016-May-17 20:33N 47°11' W 002°44'5 4.8
2016-May-17 19:33N 47°13' W 002°51'3 3.4
2016-May-17 18:33N 47°14' W 002°56'6 5.7
2016-May-17 17:33N 47°17' W 003°03'1010.0
2016-May-17 16:34N 47°11' W 003°15'6 5.6
2016-May-17 15:33N 47°08' W 003°22'1010.1
2016-May-17 14:32N 47°03' W 003°35'1212.3
2016-May-17 13:31N 46°58' W 003°18'6 6.5
2016-May-17 12:33N 46°54' W 003°26'1010.3
2016-May-17 11:33N 46°60' W 003°13'1 1.1
2016-May-17 10:32N 46°59' W 003°15'3 3.1
2016-May-17 09:34N 47°01' W 003°11'9 9.3
2016-May-17 08:34N 47°05' W 002°59'5 4.9
2016-May-17 07:33N 47°03' W 003°05'10 9.6
2016-May-17 06:34N 47°08' W 002°53'1010.0
2016-May-17 05:34N 47°13' W 002°40'4 3.8
2016-May-17 04:33N 47°15' W 002°36'2 2.2
2016-May-17 03:34N 47°13' W 002°37'4 4.2
2016-May-17 02:33N 47°10' W 002°33'4 3.9
2016-May-17 01:30N 47°08' W 002°28'5 5.1
2016-May-17 00:33N 47°04' W 002°32'5 5.3
2016-May-16 23:33N 46°60' W 002°37'1211.8
2016-May-16 22:30N 46°54' W 002°53'15 6.4
2016-May-16 20:10N 46°46' W 003°12'1 1.8
2016-May-16 19:33N 46°47' W 003°10'10 9.9
2016-May-16 18:33N 46°52' W 002°58'9 8.5
2016-May-16 17:33N 46°56' W 002°47'4 4.1
2016-May-16 16:33N 46°54' W 002°52'7 6.9
2016-May-16 15:33N 46°57' W 002°43'10 9.6
2016-May-16 14:33N 47°02' W 002°31'3 3.1
2016-May-16 13:33N 47°01' W 002°27'9 9.3
2016-May-16 12:34N 46°53' W 002°23'3718.0
2016-May-16 10:29N 46°26' W 003°02'3027.0
2016-May-16 09:24N 46°39' W 002°23'26 3.0
2016-May-16 00:33N 46°26' W 002°56'0 0.4
2016-May-15 23:30N 46°26' W 002°56'8 8.8
2016-May-15 22:33N 46°29' W 002°45'8 7.6
2016-May-15 21:33N 46°33' W 002°36'1010.4
2016-May-15 20:33N 46°39' W 002°23'0 0.3
2016-May-15 19:30N 46°39' W 002°23'3 3.6
2016-May-15 18:34N 46°40' W 002°18'15 7.2
2016-May-15 16:30N 46°33' W 002°37'11 3.4
2016-May-15 13:27N 46°28' W 002°50'20 6.5
2016-May-15 10:20N 46°17' W 003°15'910.9
2016-May-15 09:31N 46°26' W 003°19'6 6.7
2016-May-15 08:33N 46°26' W 003°28'1010.0
2016-May-15 07:33N 46°21' W 003°41'  

Dump ship's entire track history